sensor_id;sensor_type;location;lat;lon;timestamp;pressure;altitude;pressure_sealevel;temperature;humidity
74403;BME280;62837;51.082;13.744;2023-04-24T00:02:14;99105.30;;;14.75;65.99
74403;BME280;62837;51.082;13.744;2023-04-24T00:04:45;99103.86;;;14.79;66.10
74403;BME280;62837;51.082;13.744;2023-04-24T00:07:15;99100.46;;;14.82;65.81
74403;BME280;62837;51.082;13.744;2023-04-24T00:09:47;99098.33;;;14.85;66.22
74403;BME280;62837;51.082;13.744;2023-04-24T00:12:17;99097.83;;;14.89;66.15
74403;BME280;62837;51.082;13.744;2023-04-24T00:14:48;99101.35;;;14.93;65.90
74403;BME280;62837;51.082;13.744;2023-04-24T00:17:19;99098.43;;;14.95;65.34
74403;BME280;62837;51.082;13.744;2023-04-24T00:19:51;99099.47;;;14.93;65.57
74403;BME280;62837;51.082;13.744;2023-04-24T00:22:28;99101.82;;;14.93;65.41
74403;BME280;62837;51.082;13.744;2023-04-24T00:24:59;99118.84;;;14.92;65.37
74403;BME280;62837;51.082;13.744;2023-04-24T00:27:30;99126.02;;;14.87;65.25
74403;BME280;62837;51.082;13.744;2023-04-24T00:30:01;99121.16;;;14.69;65.29
74403;BME280;62837;51.082;13.744;2023-04-24T00:32:32;99121.20;;;14.58;65.66
74403;BME280;62837;51.082;13.744;2023-04-24T00:35:03;99122.31;;;14.42;65.97
74403;BME280;62837;51.082;13.744;2023-04-24T00:37:35;99121.42;;;14.33;66.71
74403;BME280;62837;51.082;13.744;2023-04-24T00:40:08;99119.08;;;14.33;66.66
74403;BME280;62837;51.082;13.744;2023-04-24T00:42:40;99122.94;;;14.32;66.53
74403;BME280;62837;51.082;13.744;2023-04-24T00:45:12;99127.15;;;14.26;66.67
74403;BME280;62837;51.082;13.744;2023-04-24T00:47:43;99124.31;;;14.18;67.18
74403;BME280;62837;51.082;13.744;2023-04-24T00:50:16;99119.75;;;14.17;67.11
74403;BME280;62837;51.082;13.744;2023-04-24T00:52:47;99115.46;;;14.18;67.33
74403;BME280;62837;51.082;13.744;2023-04-24T00:55:18;99113.53;;;14.22;67.56
74403;BME280;62837;51.082;13.744;2023-04-24T00:57:50;99112.57;;;14.28;67.49
74403;BME280;62837;51.082;13.744;2023-04-24T01:00:21;99110.25;;;14.35;67.47
74403;BME280;62837;51.082;13.744;2023-04-24T01:02:53;99107.30;;;14.40;67.35
74403;BME280;62837;51.082;13.744;2023-04-24T01:05:24;99101.71;;;14.39;67.04
74403;BME280;62837;51.082;13.744;2023-04-24T01:07:55;99104.71;;;14.39;67.13
74403;BME280;62837;51.082;13.744;2023-04-24T01:10:27;99099.73;;;14.31;67.12
74403;BME280;62837;51.082;13.744;2023-04-24T01:12:58;99102.81;;;14.22;67.28
74403;BME280;62837;51.082;13.744;2023-04-24T01:15:29;99106.04;;;14.21;67.50
74403;BME280;62837;51.082;13.744;2023-04-24T01:18:00;99104.60;;;14.19;67.43
74403;BME280;62837;51.082;13.744;2023-04-24T01:20:31;99105.31;;;14.15;67.80
74403;BME280;62837;51.082;13.744;2023-04-24T01:23:02;99108.80;;;14.17;67.99
74403;BME280;62837;51.082;13.744;2023-04-24T01:25:34;99113.09;;;14.20;67.68
74403;BME280;62837;51.082;13.744;2023-04-24T01:28:05;99110.39;;;14.22;67.81
74403;BME280;62837;51.082;13.744;2023-04-24T01:30:36;99114.57;;;14.26;67.93
74403;BME280;62837;51.082;13.744;2023-04-24T01:33:07;99113.55;;;14.31;67.97
74403;BME280;62837;51.082;13.744;2023-04-24T01:35:38;99114.66;;;14.35;67.82
74403;BME280;62837;51.082;13.744;2023-04-24T01:38:09;99115.67;;;14.27;67.30
74403;BME280;62837;51.082;13.744;2023-04-24T01:40:40;99115.42;;;14.18;67.70
74403;BME280;62837;51.082;13.744;2023-04-24T01:43:11;99114.11;;;14.17;67.94
74403;BME280;62837;51.082;13.744;2023-04-24T01:45:42;99116.61;;;14.21;68.29
74403;BME280;62837;51.082;13.744;2023-04-24T01:48:14;99113.60;;;14.27;67.91
74403;BME280;62837;51.082;13.744;2023-04-24T01:50:44;99110.55;;;14.24;67.94
74403;BME280;62837;51.082;13.744;2023-04-24T01:53:15;99109.26;;;14.23;68.16
74403;BME280;62837;51.082;13.744;2023-04-24T01:55:46;99097.83;;;14.26;68.19
74403;BME280;62837;51.082;13.744;2023-04-24T01:58:17;99104.54;;;14.33;68.02
74403;BME280;62837;51.082;13.744;2023-04-24T02:00:48;99099.73;;;14.39;67.94
74403;BME280;62837;51.082;13.744;2023-04-24T02:03:18;99107.35;;;14.41;67.99
74403;BME280;62837;51.082;13.744;2023-04-24T02:05:50;99103.94;;;14.42;67.78
74403;BME280;62837;51.082;13.744;2023-04-24T02:08:21;99104.51;;;14.44;68.05
74403;BME280;62837;51.082;13.744;2023-04-24T02:10:52;99101.73;;;14.48;67.85
74403;BME280;62837;51.082;13.744;2023-04-24T02:13:23;99106.66;;;14.53;67.80
74403;BME280;62837;51.082;13.744;2023-04-24T02:15:53;99102.64;;;14.58;67.82
74403;BME280;62837;51.082;13.744;2023-04-24T02:18:25;99103.83;;;14.61;67.68
74403;BME280;62837;51.082;13.744;2023-04-24T02:20:56;99103.48;;;14.62;67.26
74403;BME280;62837;51.082;13.744;2023-04-24T02:23:27;99100.11;;;14.55;67.04
74403;BME280;62837;51.082;13.744;2023-04-24T02:25:58;99094.84;;;14.41;67.08
74403;BME280;62837;51.082;13.744;2023-04-24T02:28:28;99098.05;;;14.34;67.68
74403;BME280;62837;51.082;13.744;2023-04-24T02:30:59;99099.54;;;14.34;67.88
74403;BME280;62837;51.082;13.744;2023-04-24T02:33:30;99101.39;;;14.39;67.94
74403;BME280;62837;51.082;13.744;2023-04-24T02:36:00;99097.82;;;14.42;67.86
74403;BME280;62837;51.082;13.744;2023-04-24T02:38:32;99101.70;;;14.43;68.20
74403;BME280;62837;51.082;13.744;2023-04-24T02:41:02;99104.23;;;14.46;67.96
74403;BME280;62837;51.082;13.744;2023-04-24T02:43:35;99105.27;;;14.46;67.71
74403;BME280;62837;51.082;13.744;2023-04-24T02:46:06;99100.98;;;14.48;68.08
74403;BME280;62837;51.082;13.744;2023-04-24T02:48:37;99099.98;;;14.50;67.98
74403;BME280;62837;51.082;13.744;2023-04-24T02:51:08;99102.62;;;14.53;68.18
74403;BME280;62837;51.082;13.744;2023-04-24T02:53:39;99101.55;;;14.56;67.58
74403;BME280;62837;51.082;13.744;2023-04-24T02:56:10;99098.77;;;14.50;67.39
74403;BME280;62837;51.082;13.744;2023-04-24T02:58:41;99102.27;;;14.42;67.62
74403;BME280;62837;51.082;13.744;2023-04-24T03:01:12;99099.87;;;14.34;67.79
74403;BME280;62837;51.082;13.744;2023-04-24T03:03:43;99096.45;;;14.27;68.36
74403;BME280;62837;51.082;13.744;2023-04-24T03:06:14;99093.15;;;14.26;68.80
74403;BME280;62837;51.082;13.744;2023-04-24T03:08:45;99096.01;;;14.27;68.54
74403;BME280;62837;51.082;13.744;2023-04-24T03:11:15;99092.52;;;14.30;68.69
74403;BME280;62837;51.082;13.744;2023-04-24T03:13:46;99090.80;;;14.34;68.54
74403;BME280;62837;51.082;13.744;2023-04-24T03:16:17;99094.98;;;14.33;68.09
74403;BME280;62837;51.082;13.744;2023-04-24T03:18:48;99094.17;;;14.25;67.90
74403;BME280;62837;51.082;13.744;2023-04-24T03:21:20;99091.55;;;14.15;68.01
74403;BME280;62837;51.082;13.744;2023-04-24T03:23:51;99094.21;;;14.08;68.03
74403;BME280;62837;51.082;13.744;2023-04-24T03:26:22;99093.98;;;14.05;68.20
74403;BME280;62837;51.082;13.744;2023-04-24T03:29:03;99095.04;;;14.06;68.16
74403;BME280;62837;51.082;13.744;2023-04-24T03:31:34;99095.93;;;14.09;68.69
74403;BME280;62837;51.082;13.744;2023-04-24T03:34:05;99095.48;;;14.14;68.58
74403;BME280;62837;51.082;13.744;2023-04-24T03:36:37;99091.98;;;14.19;68.21
74403;BME280;62837;51.082;13.744;2023-04-24T03:39:08;99095.02;;;14.27;68.66
74403;BME280;62837;51.082;13.744;2023-04-24T03:41:44;99101.45;;;14.33;68.26
74403;BME280;62837;51.082;13.744;2023-04-24T03:44:19;99103.83;;;14.39;68.11
74403;BME280;62837;51.082;13.744;2023-04-24T03:46:50;99105.15;;;14.41;68.07
74403;BME280;62837;51.082;13.744;2023-04-24T03:49:21;99110.27;;;14.44;67.80
74403;BME280;62837;51.082;13.744;2023-04-24T03:51:52;99109.03;;;14.44;67.38
74403;BME280;62837;51.082;13.744;2023-04-24T03:54:25;99112.27;;;14.39;67.55
74403;BME280;62837;51.082;13.744;2023-04-24T03:56:55;99116.20;;;14.37;67.74
74403;BME280;62837;51.082;13.744;2023-04-24T03:59:27;99120.48;;;14.38;67.63
74403;BME280;62837;51.082;13.744;2023-04-24T04:02:18;99127.91;;;14.41;67.75
74403;BME280;62837;51.082;13.744;2023-04-24T04:04:49;99131.16;;;14.44;67.72
74403;BME280;62837;51.082;13.744;2023-04-24T04:07:20;99131.85;;;14.46;67.21
74403;BME280;62837;51.082;13.744;2023-04-24T04:09:51;99136.52;;;14.37;67.28
74403;BME280;62837;51.082;13.744;2023-04-24T04:12:25;99138.59;;;14.32;67.57
74403;BME280;62837;51.082;13.744;2023-04-24T04:14:56;99137.70;;;14.32;67.85
74403;BME280;62837;51.082;13.744;2023-04-24T04:17:26;99144.80;;;14.33;67.21
74403;BME280;62837;51.082;13.744;2023-04-24T04:19:57;99136.22;;;14.31;67.02
74403;BME280;62837;51.082;13.744;2023-04-24T04:22:29;99137.65;;;14.31;67.06
74403;BME280;62837;51.082;13.744;2023-04-24T04:25:02;99138.48;;;14.27;66.52
74403;BME280;62837;51.082;13.744;2023-04-24T04:27:34;99139.55;;;14.21;66.30
74403;BME280;62837;51.082;13.744;2023-04-24T04:30:10;99133.27;;;14.19;66.53
74403;BME280;62837;51.082;13.744;2023-04-24T04:32:50;99136.73;;;14.23;66.86
74403;BME280;62837;51.082;13.744;2023-04-24T04:35:21;99137.97;;;14.28;66.45
74403;BME280;62837;51.082;13.744;2023-04-24T04:37:52;99141.06;;;14.30;66.30
74403;BME280;62837;51.082;13.744;2023-04-24T04:40:36;99136.92;;;14.27;66.13
74403;BME280;62837;51.082;13.744;2023-04-24T04:43:07;99131.91;;;14.17;65.67
74403;BME280;62837;51.082;13.744;2023-04-24T04:45:44;99138.40;;;14.16;66.01
74403;BME280;62837;51.082;13.744;2023-04-24T04:48:35;99134.84;;;14.13;65.84
74403;BME280;62837;51.082;13.744;2023-04-24T04:51:07;99131.39;;;14.09;66.03
74403;BME280;62837;51.082;13.744;2023-04-24T04:53:38;99134.14;;;14.07;65.94
74403;BME280;62837;51.082;13.744;2023-04-24T04:56:09;99136.96;;;14.04;66.63
74403;BME280;62837;51.082;13.744;2023-04-24T04:58:43;99136.66;;;14.06;66.77
74403;BME280;62837;51.082;13.744;2023-04-24T05:01:16;99137.83;;;14.14;66.99
74403;BME280;62837;51.082;13.744;2023-04-24T05:03:48;99142.90;;;14.32;68.03
74403;BME280;62837;51.082;13.744;2023-04-24T05:06:20;99140.00;;;14.53;68.28
74403;BME280;62837;51.082;13.744;2023-04-24T05:08:53;99138.95;;;14.77;68.53
74403;BME280;62837;51.082;13.744;2023-04-24T05:11:35;99144.09;;;15.08;67.94
74403;BME280;62837;51.082;13.744;2023-04-24T05:14:07;99143.04;;;15.30;66.89
74403;BME280;62837;51.082;13.744;2023-04-24T05:16:39;99139.27;;;15.49;66.50
74403;BME280;62837;51.082;13.744;2023-04-24T05:19:11;99144.35;;;15.69;65.88
74403;BME280;62837;51.082;13.744;2023-04-24T05:21:43;99143.79;;;15.82;65.38
74403;BME280;62837;51.082;13.744;2023-04-24T05:24:14;99143.34;;;15.92;64.72
74403;BME280;62837;51.082;13.744;2023-04-24T05:27:08;99146.73;;;16.04;64.19
74403;BME280;62837;51.082;13.744;2023-04-24T05:29:41;99141.77;;;16.15;63.70
74403;BME280;62837;51.082;13.744;2023-04-24T05:32:13;99143.85;;;16.22;62.84
74403;BME280;62837;51.082;13.744;2023-04-24T05:34:44;99125.67;;;16.03;62.74
74403;BME280;62837;51.082;13.744;2023-04-24T05:37:15;99144.10;;;16.06;62.48
74403;BME280;62837;51.082;13.744;2023-04-24T05:39:46;99140.54;;;15.97;62.29
74403;BME280;62837;51.082;13.744;2023-04-24T05:42:17;99141.03;;;15.89;62.08
74403;BME280;62837;51.082;13.744;2023-04-24T05:44:47;99138.44;;;15.81;62.16
74403;BME280;62837;51.082;13.744;2023-04-24T05:47:22;99139.90;;;15.75;62.61
74403;BME280;62837;51.082;13.744;2023-04-24T05:49:53;99140.02;;;15.71;62.27
74403;BME280;62837;51.082;13.744;2023-04-24T05:52:24;99141.05;;;15.68;61.79
74403;BME280;62837;51.082;13.744;2023-04-24T05:54:55;99136.27;;;15.63;61.55
74403;BME280;62837;51.082;13.744;2023-04-24T05:57:27;99141.51;;;15.62;62.22
74403;BME280;62837;51.082;13.744;2023-04-24T06:00:05;99147.54;;;15.63;62.15
74403;BME280;62837;51.082;13.744;2023-04-24T06:02:46;99149.09;;;15.62;61.88
74403;BME280;62837;51.082;13.744;2023-04-24T06:05:17;99155.64;;;15.60;61.50
74403;BME280;62837;51.082;13.744;2023-04-24T06:07:48;99157.05;;;15.58;61.23
74403;BME280;62837;51.082;13.744;2023-04-24T06:10:20;99155.53;;;15.55;61.39
74403;BME280;62837;51.082;13.744;2023-04-24T06:12:51;99158.70;;;15.54;61.08
74403;BME280;62837;51.082;13.744;2023-04-24T06:15:26;99154.14;;;15.57;60.99
74403;BME280;62837;51.082;13.744;2023-04-24T06:18:04;99153.03;;;15.60;60.60
74403;BME280;62837;51.082;13.744;2023-04-24T06:20:34;99151.95;;;15.65;61.16
74403;BME280;62837;51.082;13.744;2023-04-24T06:23:05;99150.55;;;15.74;60.77
74403;BME280;62837;51.082;13.744;2023-04-24T06:25:36;99155.86;;;15.86;60.44
74403;BME280;62837;51.082;13.744;2023-04-24T06:28:08;99150.45;;;15.99;60.47
74403;BME280;62837;51.082;13.744;2023-04-24T06:30:38;99155.46;;;16.15;60.08
74403;BME280;62837;51.082;13.744;2023-04-24T06:33:09;99152.16;;;16.29;59.35
74403;BME280;62837;51.082;13.744;2023-04-24T06:35:49;99156.27;;;16.48;59.49
74403;BME280;62837;51.082;13.744;2023-04-24T06:38:20;99156.67;;;16.61;59.07
74403;BME280;62837;51.082;13.744;2023-04-24T06:40:50;99153.61;;;16.71;58.75
74403;BME280;62837;51.082;13.744;2023-04-24T06:43:21;99158.90;;;16.87;57.47
74403;BME280;62837;51.082;13.744;2023-04-24T06:45:52;99164.13;;;16.90;56.66
74403;BME280;62837;51.082;13.744;2023-04-24T06:48:23;99162.58;;;16.95;57.09
74403;BME280;62837;51.082;13.744;2023-04-24T06:50:54;99158.47;;;17.06;56.60
74403;BME280;62837;51.082;13.744;2023-04-24T06:53:25;99158.83;;;17.22;55.73
74403;BME280;62837;51.082;13.744;2023-04-24T06:55:56;99162.86;;;17.36;55.92
74403;BME280;62837;51.082;13.744;2023-04-24T06:58:27;99161.14;;;17.54;55.34
74403;BME280;62837;51.082;13.744;2023-04-24T07:00:58;99160.61;;;17.60;54.41
74403;BME280;62837;51.082;13.744;2023-04-24T07:03:29;99167.12;;;17.57;53.19
74403;BME280;62837;51.082;13.744;2023-04-24T07:06:00;99171.23;;;17.53;53.57
74403;BME280;62837;51.082;13.744;2023-04-24T07:08:33;99164.69;;;17.63;53.82
74403;BME280;62837;51.082;13.744;2023-04-24T07:11:05;99164.98;;;17.84;53.61
74403;BME280;62837;51.082;13.744;2023-04-24T07:13:36;99167.79;;;18.15;53.63
74403;BME280;62837;51.082;13.744;2023-04-24T07:16:11;99162.63;;;18.46;53.02
74403;BME280;62837;51.082;13.744;2023-04-24T07:18:42;99165.20;;;18.64;52.57
74403;BME280;62837;51.082;13.744;2023-04-24T07:21:12;99160.61;;;18.77;51.90
74403;BME280;62837;51.082;13.744;2023-04-24T07:23:43;99166.60;;;18.91;51.04
74403;BME280;62837;51.082;13.744;2023-04-24T07:26:14;99171.23;;;18.92;50.40
74403;BME280;62837;51.082;13.744;2023-04-24T07:28:45;99170.20;;;18.81;50.35
74403;BME280;62837;51.082;13.744;2023-04-24T07:31:15;99172.84;;;18.64;50.12
74403;BME280;62837;51.082;13.744;2023-04-24T07:33:46;99170.25;;;18.50;50.58
74403;BME280;62837;51.082;13.744;2023-04-24T07:36:17;99173.20;;;18.38;50.94
74403;BME280;62837;51.082;13.744;2023-04-24T07:38:48;99178.34;;;18.21;50.98
74403;BME280;62837;51.082;13.744;2023-04-24T07:41:19;99185.40;;;18.01;51.26
74403;BME280;62837;51.082;13.744;2023-04-24T07:43:53;99178.67;;;17.87;51.28
74403;BME280;62837;51.082;13.744;2023-04-24T07:46:24;99187.73;;;17.79;51.69
74403;BME280;62837;51.082;13.744;2023-04-24T07:48:55;99182.96;;;17.73;52.55
74403;BME280;62837;51.082;13.744;2023-04-24T07:51:41;99181.13;;;17.69;52.29
74403;BME280;62837;51.082;13.744;2023-04-24T07:54:13;99183.45;;;17.63;52.24
74403;BME280;62837;51.082;13.744;2023-04-24T07:56:44;99185.49;;;17.59;52.50
74403;BME280;62837;51.082;13.744;2023-04-24T07:59:15;99186.10;;;17.51;52.29
74403;BME280;62837;51.082;13.744;2023-04-24T08:01:45;99191.45;;;17.46;52.67
74403;BME280;62837;51.082;13.744;2023-04-24T08:04:16;99191.98;;;17.44;52.73
74403;BME280;62837;51.082;13.744;2023-04-24T08:06:48;99197.23;;;17.44;53.10
74403;BME280;62837;51.082;13.744;2023-04-24T08:09:19;99190.69;;;17.43;52.87
74403;BME280;62837;51.082;13.744;2023-04-24T08:11:49;99187.78;;;17.48;53.15
74403;BME280;62837;51.082;13.744;2023-04-24T08:14:21;99186.61;;;17.56;53.15
74403;BME280;62837;51.082;13.744;2023-04-24T08:16:53;99186.73;;;17.68;53.31
74403;BME280;62837;51.082;13.744;2023-04-24T08:19:24;99188.23;;;17.80;53.29
74403;BME280;62837;51.082;13.744;2023-04-24T08:21:55;99190.75;;;17.85;52.60
74403;BME280;62837;51.082;13.744;2023-04-24T08:24:25;99193.48;;;17.84;51.75
74403;BME280;62837;51.082;13.744;2023-04-24T08:26:56;99193.92;;;17.73;51.34
74403;BME280;62837;51.082;13.744;2023-04-24T08:29:27;99192.70;;;17.55;51.23
74403;BME280;62837;51.082;13.744;2023-04-24T08:31:58;99194.67;;;17.43;51.52
74403;BME280;62837;51.082;13.744;2023-04-24T08:34:29;99192.36;;;17.32;51.77
74403;BME280;62837;51.082;13.744;2023-04-24T08:37:00;99190.50;;;17.22;51.60
74403;BME280;62837;51.082;13.744;2023-04-24T08:39:30;99196.15;;;17.15;52.00
74403;BME280;62837;51.082;13.744;2023-04-24T08:42:01;99197.10;;;17.10;51.96
74403;BME280;62837;51.082;13.744;2023-04-24T08:44:37;99193.45;;;17.09;52.73
74403;BME280;62837;51.082;13.744;2023-04-24T08:47:09;99197.89;;;17.11;53.32
74403;BME280;62837;51.082;13.744;2023-04-24T08:49:44;99200.16;;;17.19;52.96
74403;BME280;62837;51.082;13.744;2023-04-24T08:52:16;99194.05;;;17.25;52.58
74403;BME280;62837;51.082;13.744;2023-04-24T08:54:49;99197.55;;;17.24;51.56
74403;BME280;62837;51.082;13.744;2023-04-24T08:57:20;99197.73;;;17.20;51.70
74403;BME280;62837;51.082;13.744;2023-04-24T08:59:51;99202.92;;;17.19;51.70
74403;BME280;62837;51.082;13.744;2023-04-24T09:02:24;99200.11;;;17.20;51.72
74403;BME280;62837;51.082;13.744;2023-04-24T09:04:57;99204.87;;;17.26;51.69
74403;BME280;62837;51.082;13.744;2023-04-24T09:07:29;99203.52;;;17.33;51.03
74403;BME280;62837;51.082;13.744;2023-04-24T09:10:01;99207.36;;;17.45;50.63
74403;BME280;62837;51.082;13.744;2023-04-24T09:12:32;99205.57;;;17.55;49.69
74403;BME280;62837;51.082;13.744;2023-04-24T09:15:03;99202.00;;;17.56;48.75
74403;BME280;62837;51.082;13.744;2023-04-24T09:17:35;99201.29;;;17.59;49.36
74403;BME280;62837;51.082;13.744;2023-04-24T09:20:08;99200.30;;;17.63;49.40
74403;BME280;62837;51.082;13.744;2023-04-24T09:22:39;99203.84;;;17.70;49.53
74403;BME280;62837;51.082;13.744;2023-04-24T09:25:11;99205.06;;;17.79;49.53
74403;BME280;62837;51.082;13.744;2023-04-24T09:27:46;99207.77;;;17.91;49.18
74403;BME280;62837;51.082;13.744;2023-04-24T09:30:22;99206.19;;;17.93;48.76
74403;BME280;62837;51.082;13.744;2023-04-24T09:33:12;99204.66;;;17.91;48.86
74403;BME280;62837;51.082;13.744;2023-04-24T09:35:43;99203.71;;;17.95;49.23
74403;BME280;62837;51.082;13.744;2023-04-24T09:38:19;99201.71;;;17.87;48.78
74403;BME280;62837;51.082;13.744;2023-04-24T09:40:50;99208.86;;;17.85;48.99
74403;BME280;62837;51.082;13.744;2023-04-24T09:43:21;99203.54;;;17.83;49.17
74403;BME280;62837;51.082;13.744;2023-04-24T09:45:56;99196.94;;;17.85;49.19
74403;BME280;62837;51.082;13.744;2023-04-24T09:48:33;99202.20;;;17.83;49.35
74403;BME280;62837;51.082;13.744;2023-04-24T09:51:06;99206.30;;;17.80;49.40
74403;BME280;62837;51.082;13.744;2023-04-24T09:53:40;99209.07;;;17.76;48.93
74403;BME280;62837;51.082;13.744;2023-04-24T09:56:12;99205.84;;;17.67;48.92
74403;BME280;62837;51.082;13.744;2023-04-24T09:58:43;99208.45;;;17.61;48.98
74403;BME280;62837;51.082;13.744;2023-04-24T10:01:14;99208.78;;;17.56;48.94
74403;BME280;62837;51.082;13.744;2023-04-24T10:03:44;99203.73;;;17.49;48.58
74403;BME280;62837;51.082;13.744;2023-04-24T10:06:16;99198.86;;;17.41;48.55
74403;BME280;62837;51.082;13.744;2023-04-24T10:08:47;99203.80;;;17.40;48.89
74403;BME280;62837;51.082;13.744;2023-04-24T10:11:18;99196.84;;;17.42;49.17
74403;BME280;62837;51.082;13.744;2023-04-24T10:13:49;99195.98;;;17.43;48.65
74403;BME280;62837;51.082;13.744;2023-04-24T10:16:21;99199.45;;;17.42;49.21
74403;BME280;62837;51.082;13.744;2023-04-24T10:18:53;99201.91;;;17.42;49.51
74403;BME280;62837;51.082;13.744;2023-04-24T10:21:24;99201.61;;;17.42;50.16
74403;BME280;62837;51.082;13.744;2023-04-24T10:23:56;99200.19;;;17.46;48.90
74403;BME280;62837;51.082;13.744;2023-04-24T10:26:27;99193.15;;;17.47;48.82
74403;BME280;62837;51.082;13.744;2023-04-24T10:28:59;99192.42;;;17.50;48.96
74403;BME280;62837;51.082;13.744;2023-04-24T10:31:32;99189.16;;;17.56;49.07
74403;BME280;62837;51.082;13.744;2023-04-24T10:34:03;99193.49;;;17.70;49.02
74403;BME280;62837;51.082;13.744;2023-04-24T10:36:36;99188.71;;;17.89;48.52
74403;BME280;62837;51.082;13.744;2023-04-24T10:39:11;99183.14;;;18.11;48.50
74403;BME280;62837;51.082;13.744;2023-04-24T10:41:43;99181.55;;;18.30;48.27
74403;BME280;62837;51.082;13.744;2023-04-24T10:44:16;99176.30;;;18.46;48.03
74403;BME280;62837;51.082;13.744;2023-04-24T10:46:49;99179.58;;;18.51;47.68
74403;BME280;62837;51.082;13.744;2023-04-24T10:49:31;99178.52;;;18.54;46.82
74403;BME280;62837;51.082;13.744;2023-04-24T10:52:04;99181.02;;;18.53;46.90
74403;BME280;62837;51.082;13.744;2023-04-24T10:54:44;99184.96;;;18.42;46.30
74403;BME280;62837;51.082;13.744;2023-04-24T10:57:31;99176.32;;;18.24;46.87
74403;BME280;62837;51.082;13.744;2023-04-24T11:00:20;99182.18;;;18.19;47.32
74403;BME280;62837;51.082;13.744;2023-04-24T11:02:53;99183.51;;;18.14;47.29
74403;BME280;62837;51.082;13.744;2023-04-24T11:05:55;99185.13;;;18.09;47.42
74403;BME280;62837;51.082;13.744;2023-04-24T11:08:31;99188.06;;;18.13;48.20
74403;BME280;62837;51.082;13.744;2023-04-24T11:11:09;99187.40;;;18.10;47.82
74403;BME280;62837;51.082;13.744;2023-04-24T11:14:05;99185.91;;;18.01;47.48
74403;BME280;62837;51.082;13.744;2023-04-24T11:16:44;99185.82;;;17.85;47.92
74403;BME280;62837;51.082;13.744;2023-04-24T11:19:23;99190.06;;;17.71;48.43
74403;BME280;62837;51.082;13.744;2023-04-24T11:21:59;99189.38;;;17.61;48.98
74403;BME280;62837;51.082;13.744;2023-04-24T11:24:35;99195.43;;;17.54;49.26
74403;BME280;62837;51.082;13.744;2023-04-24T11:27:13;99197.36;;;17.43;48.70
74403;BME280;62837;51.082;13.744;2023-04-24T11:29:49;99195.84;;;17.30;48.83
74403;BME280;62837;51.082;13.744;2023-04-24T11:32:25;99199.39;;;17.22;49.50
74403;BME280;62837;51.082;13.744;2023-04-24T11:34:58;99197.65;;;17.19;50.15
74403;BME280;62837;51.082;13.744;2023-04-24T11:37:33;99198.77;;;17.20;50.16
74403;BME280;62837;51.082;13.744;2023-04-24T11:40:06;99202.28;;;17.28;50.66
74403;BME280;62837;51.082;13.744;2023-04-24T11:42:38;99202.59;;;17.43;50.41
74403;BME280;62837;51.082;13.744;2023-04-24T11:45:12;99197.98;;;17.56;49.72
74403;BME280;62837;51.082;13.744;2023-04-24T11:47:44;99192.11;;;17.75;49.63
74403;BME280;62837;51.082;13.744;2023-04-24T11:50:16;99188.75;;;17.86;48.61
74403;BME280;62837;51.082;13.744;2023-04-24T11:52:49;99188.91;;;17.92;48.62
74403;BME280;62837;51.082;13.744;2023-04-24T11:55:28;99190.23;;;17.97;47.96
74403;BME280;62837;51.082;13.744;2023-04-24T11:58:00;99185.58;;;17.98;47.57
74403;BME280;62837;51.082;13.744;2023-04-24T12:00:32;99187.84;;;17.93;47.62
74403;BME280;62837;51.082;13.744;2023-04-24T12:03:09;99190.52;;;17.83;47.87
74403;BME280;62837;51.082;13.744;2023-04-24T12:05:41;99194.23;;;17.70;48.57
74403;BME280;62837;51.082;13.744;2023-04-24T12:08:11;99196.48;;;17.58;48.91
74403;BME280;62837;51.082;13.744;2023-04-24T12:10:42;99196.95;;;17.39;48.66
74403;BME280;62837;51.082;13.744;2023-04-24T12:13:14;99200.34;;;17.19;48.41
74403;BME280;62837;51.082;13.744;2023-04-24T12:15:45;99207.33;;;17.00;48.64
74403;BME280;62837;51.082;13.744;2023-04-24T12:18:16;99204.70;;;16.86;48.77
74403;BME280;62837;51.082;13.744;2023-04-24T12:20:47;99204.02;;;16.75;49.00
74403;BME280;62837;51.082;13.744;2023-04-24T12:23:35;99200.32;;;16.66;48.65
74403;BME280;62837;51.082;13.744;2023-04-24T12:26:06;99199.98;;;16.61;49.17
74403;BME280;62837;51.082;13.744;2023-04-24T12:28:41;99197.98;;;16.61;48.47
74403;BME280;62837;51.082;13.744;2023-04-24T12:31:16;99205.04;;;16.63;48.40
74403;BME280;62837;51.082;13.744;2023-04-24T12:33:47;99203.34;;;16.64;47.73
74403;BME280;62837;51.082;13.744;2023-04-24T12:36:18;99200.36;;;16.61;46.86
74403;BME280;62837;51.082;13.744;2023-04-24T12:38:54;99200.84;;;16.60;46.97
74403;BME280;62837;51.082;13.744;2023-04-24T12:41:25;99204.45;;;16.62;46.62
74403;BME280;62837;51.082;13.744;2023-04-24T12:43:58;99205.29;;;16.68;46.31
74403;BME280;62837;51.082;13.744;2023-04-24T12:46:29;99199.30;;;16.77;46.59
74403;BME280;62837;51.082;13.744;2023-04-24T12:49:00;99214.04;;;16.91;45.82
74403;BME280;62837;51.082;13.744;2023-04-24T12:51:30;99216.55;;;16.93;45.28
74403;BME280;62837;51.082;13.744;2023-04-24T12:54:01;99218.39;;;16.93;45.22
74403;BME280;62837;51.082;13.744;2023-04-24T12:56:32;99225.80;;;16.91;44.86
74403;BME280;62837;51.082;13.744;2023-04-24T12:59:03;99224.61;;;16.87;44.86
74403;BME280;62837;51.082;13.744;2023-04-24T13:01:33;99220.84;;;16.85;44.01
74403;BME280;62837;51.082;13.744;2023-04-24T13:04:04;99219.27;;;16.83;43.47
74403;BME280;62837;51.082;13.744;2023-04-24T13:06:35;99210.79;;;16.89;44.34
74403;BME280;62837;51.082;13.744;2023-04-24T13:09:07;99206.31;;;17.17;44.50
74403;BME280;62837;51.082;13.744;2023-04-24T13:11:39;99208.29;;;17.41;43.55
74403;BME280;62837;51.082;13.744;2023-04-24T13:14:09;99204.27;;;17.60;43.59
74403;BME280;62837;51.082;13.744;2023-04-24T13:16:40;99199.06;;;17.76;42.84
74403;BME280;62837;51.082;13.744;2023-04-24T13:19:11;99191.27;;;17.80;41.12